Metar z połowy godziny Komunikat METAR ze strony awiacja.imgw.pl Metar G30 EPBY METAR EPBY 231230Z 25011KT 220V280 9999 SCT044 22/12 Q1009 =